Cherry Grove, Ohio
Current Conditions -  °F | °C
As of 8:53 AM on Sunday 25 Jan 2015 (Local Time) from KLUK Reporting Station
Haze Haze  
Wind Chill: 32°   Ceiling: 8500
Heat Index: 32°   Visibility: 5mi
Dew Point: 31°   Wind: 0mph
Humidity: 96%   Direction: NA
Pressure: 29.74"   Gusts: NA
Location:  39.0659°N, 84.278°W
Report Text: KLUK 251353Z 00000KT 5SM BR BKN085 OVC110 00/M01 A2974 RMK AO2 SLP076 T00001006
Loading
Personal Weather Stations






























Interactive Weather Map New forecast layout! Learn more

10-Day Weather Forecast

Advertisements
Track Severe Weather on mobile